THUNDERSTORM

Not for real navigation. The accuracy of this data is not assured See disclaimer for more information



ICAO NAME COUNTRY WIND Kt GUST Kt VIS m TEMP/DEW C BARO METAR
PATQ 6 0 400 3/3 30.29 PATQ 191332Z AUTO 04006KT 0.25SM FG OVC003 03/03 A3029 RMK AO2 TS
RJTY Yokota Ab Japan 4 0 1600 25/24 29.95 RJTY 191333Z AUTO 07004KT 1 0.25SM +RA BR SCT002 OVC011 25/24 A2995 RMK AO2 TSE25 CIG 001 RWY18 SLP1
RPMD Davao Airport Philippines 14 0 2000 23/23 29.88 RPMD 191300Z 03014KT 2000 TSRA SCT015CB OVC080 23/23 Q1012 RMK A2988
VEBN 3 0 2000 27/26 29.59 VEBN 191330Z 24003KT 2000 -RA BKN018 FEW030CB OVC080 27/26 Q1002 TEMPO 0800 TSRA RA
KQFB 2 0 2400 24/23 29.91 KQFB 191340Z AUTO 10002KT 2400 BR FEW060 24/23 A2991 RMK A02 TS

Show more